createdAt,value
2022-10-23T00:01:29.074Z,98330.66
2022-10-23T00:04:02.220Z,98327.06
2022-10-23T00:06:31.594Z,98322.81
2022-10-23T00:08:58.584Z,98327.94
2022-10-23T00:11:28.407Z,98320.09
2022-10-23T00:13:58.630Z,98322.59
2022-10-23T00:16:25.990Z,98324.22
2022-10-23T00:18:52.781Z,98317.63
2022-10-23T00:21:19.732Z,98315.00
2022-10-23T00:23:46.734Z,98316.00
2022-10-23T00:26:17.130Z,98318.53
2022-10-23T00:28:44.984Z,98315.88
2022-10-23T00:31:12.570Z,98317.53
2022-10-23T00:33:41.146Z,98312.13
2022-10-23T00:36:09.744Z,98318.41
2022-10-23T00:38:37.280Z,98318.25
2022-10-23T00:41:05.572Z,98322.66
2022-10-23T00:43:33.412Z,98322.22
2022-10-23T00:46:00.531Z,98310.75
2022-10-23T00:48:28.693Z,98309.03
2022-10-23T00:50:56.484Z,98308.88
2022-10-23T00:53:24.893Z,98308.16
2022-10-23T00:55:53.849Z,98300.31
2022-10-23T00:58:21.143Z,98302.88
2022-10-23T01:00:50.021Z,98297.50
2022-10-23T01:03:21.375Z,98296.69
2022-10-23T01:05:55.807Z,98306.47
2022-10-23T01:08:34.900Z,98309.09
2022-10-23T01:11:12.155Z,98309.09
2022-10-23T01:13:49.074Z,98295.91
2022-10-23T01:16:29.271Z,98298.72
2022-10-23T01:19:12.283Z,98293.38
2022-10-23T01:22:30.969Z,98288.97
2022-10-23T01:25:03.126Z,98284.72
2022-10-23T01:27:42.443Z,98286.34
2022-10-23T01:30:13.998Z,98301.38
2022-10-23T01:33:06.650Z,98291.91
2022-10-23T01:35:49.624Z,98292.91
2022-10-23T01:38:35.673Z,98278.84
2022-10-23T01:41:16.940Z,98284.91
2022-10-23T01:43:49.684Z,98278.72
2022-10-23T01:46:18.152Z,98273.47
2022-10-23T01:48:51.503Z,98268.31
2022-10-23T01:51:21.211Z,98256.22
2022-10-23T01:53:52.094Z,98260.63
2022-10-23T01:56:22.652Z,98253.41
2022-10-23T01:58:53.289Z,98249.97
2022-10-23T02:01:24.404Z,98248.06
2022-10-23T02:03:54.486Z,98241.97
2022-10-23T02:06:21.339Z,98243.09
2022-10-23T02:08:48.300Z,98233.44
2022-10-23T02:11:18.174Z,98234.50
2022-10-23T02:13:55.785Z,98226.38
2022-10-23T02:16:54.028Z,98233.38
2022-10-23T02:19:39.542Z,98217.41
2022-10-23T02:22:14.567Z,98213.16
2022-10-23T02:24:54.239Z,98216.81
2022-10-23T02:27:39.023Z,98218.53
2022-10-23T02:30:14.645Z,98212.28
2022-10-23T02:32:50.915Z,98199.88
2022-10-23T02:35:20.157Z,98204.28
2022-10-23T02:37:56.984Z,98199.75
2022-10-23T02:40:40.869Z,98208.47
2022-10-23T02:43:24.361Z,98212.00
2022-10-23T02:46:06.144Z,98211.75
2022-10-23T02:48:42.850Z,98202.16
2022-10-23T02:51:25.955Z,98203.94
2022-10-23T02:54:05.808Z,98213.78
2022-10-23T02:57:06.015Z,98205.88
2022-10-23T02:59:46.879Z,98209.56
2022-10-23T03:02:23.865Z,98218.66
2022-10-23T03:04:53.774Z,98209.03
2022-10-23T03:07:20.623Z,98204.44
2022-10-23T03:09:47.663Z,98208.09
2022-10-23T03:12:14.549Z,98214.53
2022-10-23T03:14:41.278Z,98214.72
2022-10-23T03:17:08.090Z,98202.44
2022-10-23T03:19:34.720Z,98199.97
2022-10-23T03:22:03.713Z,98186.06
2022-10-23T03:24:30.372Z,98191.50
2022-10-23T03:26:57.016Z,98184.31
2022-10-23T03:29:30.502Z,98189.59
2022-10-23T03:31:57.396Z,98188.16
2022-10-23T03:34:24.113Z,98195.34
2022-10-23T03:36:53.150Z,98187.34
2022-10-23T03:39:20.569Z,98183.03
2022-10-23T03:41:47.905Z,98185.75
2022-10-23T03:44:16.112Z,98186.63
2022-10-23T03:46:44.858Z,98187.53
2022-10-23T03:49:11.602Z,98187.50
2022-10-23T03:51:42.627Z,98187.50
2022-10-23T03:54:09.752Z,98190.81
2022-10-23T03:56:37.844Z,98181.91
2022-10-23T03:59:07.114Z,98186.19
2022-10-23T04:01:33.918Z,98179.81
2022-10-23T04:04:00.904Z,98172.34
2022-10-23T04:06:28.016Z,98173.19
2022-10-23T04:08:57.681Z,98161.75
2022-10-23T04:11:24.532Z,98164.38
2022-10-23T04:13:51.192Z,98169.41
2022-10-23T04:16:18.013Z,98164.03
2022-10-23T04:18:45.229Z,98164.88
2022-10-23T04:21:12.389Z,98154.22
2022-10-23T04:23:39.229Z,98167.34
2022-10-23T04:26:11.756Z,98158.44
2022-10-23T04:28:38.540Z,98158.47
2022-10-23T04:31:05.383Z,98151.31
2022-10-23T04:33:32.179Z,98152.28
2022-10-23T04:35:58.829Z,98152.28
2022-10-23T04:38:26.112Z,98138.13
2022-10-23T04:40:52.910Z,98141.63
2022-10-23T04:43:21.797Z,98138.25
2022-10-23T04:45:49.109Z,98137.47
2022-10-23T04:48:15.819Z,98133.88
2022-10-23T04:51:05.297Z,98133.06
2022-10-23T04:53:54.223Z,98135.66
2022-10-23T04:56:56.102Z,98132.19
2022-10-23T04:59:24.017Z,98127.22
2022-10-23T05:01:50.848Z,98125.56
2022-10-23T05:04:18.230Z,98122.50
2022-10-23T05:07:03.442Z,98122.22
2022-10-23T05:09:40.628Z,98108.19
2022-10-23T05:12:18.310Z,98103.88
2022-10-23T05:14:44.961Z,98112.34
2022-10-23T05:17:27.055Z,98116.13
2022-10-23T05:19:55.653Z,98107.97
2022-10-23T05:22:25.852Z,98115.09
2022-10-23T05:24:54.440Z,98112.34
2022-10-23T05:27:24.539Z,98110.56
2022-10-23T05:29:53.103Z,98104.25
2022-10-23T05:32:26.026Z,98096.31
2022-10-23T05:34:53.977Z,98100.91
2022-10-23T05:37:21.025Z,98091.03
2022-10-23T05:39:47.892Z,98076.16
2022-10-23T05:42:16.539Z,98075.16
2022-10-23T05:44:43.211Z,98087.31
2022-10-23T05:47:29.325Z,98091.91
2022-10-23T05:50:05.940Z,98085.66
2022-10-23T05:53:11.205Z,98085.94
2022-10-23T05:55:49.743Z,98083.34
2022-10-23T05:58:34.479Z,98085.44
2022-10-23T06:01:27.743Z,98082.97
2022-10-23T06:04:00.772Z,98080.25
2022-10-23T06:06:47.395Z,98073.53
2022-10-23T06:09:15.794Z,98071.78
2022-10-23T06:11:42.970Z,98072.72
2022-10-23T06:14:15.365Z,98071.91
2022-10-23T06:16:42.621Z,98066.41
2022-10-23T06:19:13.239Z,98076.91
2022-10-23T06:21:41.700Z,98069.66
2022-10-23T06:24:10.369Z,98075.66
2022-10-23T06:26:55.692Z,98082.06
2022-10-23T06:29:33.880Z,98083.78
2022-10-23T06:32:00.958Z,98085.16
2022-10-23T06:34:27.698Z,98076.00
2022-10-23T06:36:54.601Z,98076.72
2022-10-23T06:39:44.337Z,98077.91
2022-10-23T06:42:16.834Z,98072.56
2022-10-23T06:44:52.294Z,98076.69
2022-10-23T06:47:38.994Z,98073.66
2022-10-23T06:50:25.185Z,98074.06
2022-10-23T06:52:53.918Z,98082.00
2022-10-23T06:55:21.853Z,98083.41
2022-10-23T06:57:48.579Z,98090.38
2022-10-23T07:00:15.530Z,98084.63
2022-10-23T07:02:48.927Z,98087.50
2022-10-23T07:05:15.745Z,98085.41
2022-10-23T07:07:43.372Z,98080.31
2022-10-23T07:10:11.589Z,98078.34
2022-10-23T07:12:44.213Z,98076.69
2022-10-23T07:15:30.294Z,98068.03
2022-10-23T07:17:57.892Z,98072.50
2022-10-23T07:20:27.491Z,98072.16
2022-10-23T07:22:56.078Z,98065.44
2022-10-23T07:25:29.100Z,98065.47
2022-10-23T07:27:56.565Z,98061.56
2022-10-23T07:30:25.746Z,98059.66
2022-10-23T07:32:54.823Z,98064.34
2022-10-23T07:35:27.530Z,98076.88
2022-10-23T07:38:00.694Z,98069.41
2022-10-23T07:40:30.560Z,98072.00
2022-10-23T07:42:57.440Z,98073.75
2022-10-23T07:45:25.214Z,98078.06
2022-10-23T07:47:52.937Z,98066.19
2022-10-23T07:50:22.809Z,98063.69
2022-10-23T07:52:49.643Z,98068.13
2022-10-23T07:55:17.744Z,98061.69
2022-10-23T07:58:00.552Z,98066.59
2022-10-23T08:00:41.313Z,98059.09
2022-10-23T08:03:19.008Z,98065.38
2022-10-23T08:05:46.707Z,98060.22
2022-10-23T08:08:13.616Z,98066.81
2022-10-23T08:10:43.542Z,98073.84
2022-10-23T08:13:14.575Z,98069.28
2022-10-23T08:16:02.212Z,98085.38
2022-10-23T08:18:49.420Z,98076.44
2022-10-23T08:21:17.308Z,98068.19
2022-10-23T08:23:45.289Z,98065.06
2022-10-23T08:26:14.177Z,98064.88
2022-10-23T08:28:41.156Z,98057.47
2022-10-23T08:31:14.318Z,98057.03
2022-10-23T08:33:47.157Z,98049.69
2022-10-23T08:36:22.747Z,98045.72
2022-10-23T08:38:50.015Z,98038.47
2022-10-23T08:41:42.807Z,98036.81
2022-10-23T08:44:28.447Z,98047.75
2022-10-23T08:47:37.452Z,98040.16
2022-10-23T08:50:44.368Z,98046.97
2022-10-23T08:53:36.509Z,98033.69
2022-10-23T08:56:12.004Z,98034.16
2022-10-23T08:58:46.980Z,98027.19
2022-10-23T09:01:23.595Z,98030.34
2022-10-23T09:03:50.617Z,98026.94
2022-10-23T09:06:30.941Z,98017.16
2022-10-23T09:09:08.686Z,98014.31
2022-10-23T09:11:47.481Z,98008.84
2022-10-23T09:14:49.614Z,98007.59
2022-10-23T09:17:24.312Z,98000.06
2022-10-23T09:20:00.442Z,97999.00
2022-10-23T09:22:27.990Z,97998.75
2022-10-23T09:24:54.641Z,97997.88
2022-10-23T09:27:21.391Z,97990.59
2022-10-23T09:29:54.120Z,97987.84
2022-10-23T09:32:33.301Z,98001.28
2022-10-23T09:35:00.240Z,97993.72
2022-10-23T09:37:30.314Z,97989.81
2022-10-23T09:40:12.252Z,97986.53
2022-10-23T09:42:51.362Z,97983.84
2022-10-23T09:45:22.938Z,97989.53
2022-10-23T09:47:49.727Z,97989.63
2022-10-23T09:50:21.017Z,97972.09
2022-10-23T09:52:52.383Z,97972.78
2022-10-23T09:55:24.052Z,97970.59
2022-10-23T09:57:53.080Z,97959.53
2022-10-23T10:00:26.246Z,97958.69
2022-10-23T10:03:01.597Z,97938.88
2022-10-23T10:05:39.288Z,97947.91
2022-10-23T10:08:39.397Z,97955.75
2022-10-23T10:11:22.776Z,97955.97
2022-10-23T10:14:31.640Z,97945.06
2022-10-23T10:17:04.609Z,97940.34
2022-10-23T10:19:51.253Z,97937.31
2022-10-23T10:22:36.434Z,97932.66
2022-10-23T10:25:21.321Z,97912.50
2022-10-23T10:28:06.832Z,97879.06
2022-10-23T10:30:52.303Z,97866.56
2022-10-23T10:33:34.626Z,97864.28
2022-10-23T10:36:05.072Z,97882.44
2022-10-23T10:38:46.687Z,97866.88
2022-10-23T10:41:32.624Z,97870.28
2022-10-23T10:44:12.720Z,97890.50
2022-10-23T10:46:42.352Z,97898.81
2022-10-23T10:49:32.387Z,97895.84
2022-10-23T10:52:33.527Z,97882.34
2022-10-23T10:55:29.550Z,97871.09
2022-10-23T10:58:00.020Z,97859.06
2022-10-23T11:00:29.859Z,97871.03
2022-10-23T11:03:21.840Z,97866.13
2022-10-23T11:05:50.466Z,97858.84
2022-10-23T11:08:27.795Z,97850.03
2022-10-23T11:11:00.246Z,97873.53
2022-10-23T11:13:33.693Z,97877.44
2022-10-23T11:16:31.233Z,97873.59
2022-10-23T11:19:03.857Z,97849.88
2022-10-23T11:21:37.836Z,97834.97
2022-10-23T11:24:13.566Z,97832.56
2022-10-23T11:27:14.262Z,97836.34
2022-10-23T11:29:51.702Z,97817.97
2022-10-23T11:32:21.324Z,97815.59
2022-10-23T11:34:48.001Z,97795.66
2022-10-23T11:37:19.489Z,97787.81
2022-10-23T11:40:03.127Z,97782.00
2022-10-23T11:42:34.256Z,97791.84
2022-10-23T11:45:00.987Z,97799.00
2022-10-23T11:47:29.778Z,97799.09
2022-10-23T11:50:08.593Z,97806.59
2022-10-23T11:52:45.533Z,97807.75
2022-10-23T11:55:20.459Z,97800.50
2022-10-23T11:58:13.893Z,97797.38
2022-10-23T12:00:52.071Z,97800.97
2022-10-23T12:03:24.156Z,97798.72
2022-10-23T12:06:00.398Z,97796.44
2022-10-23T12:08:30.264Z,97813.38
2022-10-23T12:10:57.439Z,97810.69
2022-10-23T12:13:36.406Z,97817.28
2022-10-23T12:16:10.274Z,97818.75
2022-10-23T12:18:54.058Z,97817.13
2022-10-23T12:21:28.242Z,97805.25
2022-10-23T12:24:13.680Z,97795.72
2022-10-23T12:26:55.029Z,97788.00
2022-10-23T12:29:36.762Z,97788.56
2022-10-23T12:32:22.905Z,97783.19
2022-10-23T12:35:24.073Z,97786.69
2022-10-23T12:38:20.106Z,97778.00
2022-10-23T12:40:54.885Z,97767.25
2022-10-23T12:43:26.069Z,97759.44
2022-10-23T12:45:54.306Z,97758.41
2022-10-23T12:48:24.204Z,97750.78
2022-10-23T12:50:53.623Z,97751.00
2022-10-23T12:53:22.956Z,97765.25
2022-10-23T12:55:56.105Z,97776.75
2022-10-23T12:58:30.603Z,97771.44
2022-10-23T13:01:02.184Z,97782.34
2022-10-23T13:03:30.511Z,97778.09
2022-10-23T13:05:59.798Z,97778.66
2022-10-23T13:08:33.955Z,97779.94
2022-10-23T13:11:21.872Z,97774.94
2022-10-23T13:13:50.447Z,97763.94
2022-10-23T13:16:20.484Z,97750.97
2022-10-23T13:18:47.296Z,97742.69
2022-10-23T13:21:20.059Z,97741.28
2022-10-23T13:23:47.686Z,97737.56
2022-10-23T13:26:33.137Z,97736.03
2022-10-23T13:29:06.164Z,97733.31
2022-10-23T13:31:36.448Z,97732.78
2022-10-23T13:34:06.958Z,97728.91
2022-10-23T13:36:39.439Z,97729.78
2022-10-23T13:39:09.163Z,97730.03
2022-10-23T13:41:39.838Z,97721.66
2022-10-23T13:44:06.885Z,97710.84
2022-10-23T13:46:33.759Z,97705.44
2022-10-23T13:49:00.536Z,97702.88
2022-10-23T13:51:29.531Z,97697.88
2022-10-23T13:53:58.346Z,97702.88
2022-10-23T13:56:27.405Z,97710.84
2022-10-23T13:58:54.639Z,97707.41
2022-10-23T14:01:28.250Z,97704.28
2022-10-23T14:03:56.278Z,97710.47
2022-10-23T14:06:23.376Z,97720.44
2022-10-23T14:08:50.498Z,97723.28
2022-10-23T14:11:19.413Z,97720.03
2022-10-23T14:13:46.624Z,97720.63
2022-10-23T14:16:15.232Z,97724.34
2022-10-23T14:18:42.591Z,97737.00
2022-10-23T14:21:11.715Z,97744.63
2022-10-23T14:23:38.576Z,97734.19
2022-10-23T14:26:10.977Z,97746.06
2022-10-23T14:28:38.238Z,97734.63
2022-10-23T14:31:10.349Z,97738.72
2022-10-23T14:33:37.121Z,97739.97
2022-10-23T14:36:04.025Z,97731.56
2022-10-23T14:38:30.665Z,97729.16
2022-10-23T14:40:57.382Z,97704.75
2022-10-23T14:43:25.129Z,97713.94
2022-10-23T14:45:52.168Z,97702.72
2022-10-23T14:48:18.895Z,97687.50
2022-10-23T14:50:47.859Z,97683.94
2022-10-23T14:53:15.915Z,97685.06
2022-10-23T14:55:42.533Z,97701.47
2022-10-23T14:58:09.238Z,97681.56
2022-10-23T15:00:35.845Z,97681.16
2022-10-23T15:03:02.489Z,97679.47
2022-10-23T15:05:29.188Z,97680.25
2022-10-23T15:07:56.575Z,97671.56
2022-10-23T15:10:23.296Z,97661.19
2022-10-23T15:12:49.912Z,97668.50
2022-10-23T15:15:16.842Z,97666.56
2022-10-23T15:17:43.784Z,97670.03
2022-10-23T15:20:10.960Z,97673.13
2022-10-23T15:22:37.619Z,97665.41
2022-10-23T15:25:04.766Z,97658.19
2022-10-23T15:27:31.435Z,97668.25
2022-10-23T15:29:58.073Z,97643.66
2022-10-23T15:32:24.771Z,97647.22
2022-10-23T15:34:52.468Z,97652.84
2022-10-23T15:37:19.247Z,97651.91
2022-10-23T15:39:46.176Z,97659.88
2022-10-23T15:42:12.945Z,97654.59
2022-10-23T15:44:40.406Z,97658.19
2022-10-23T15:47:07.452Z,97651.31
2022-10-23T15:49:34.204Z,97649.16
2022-10-23T15:52:02.247Z,97649.53
2022-10-23T15:54:31.927Z,97648.22
2022-10-23T15:57:00.134Z,97640.72
2022-10-23T15:59:28.930Z,97646.81
2022-10-23T16:01:56.076Z,97642.44
2022-10-23T16:04:23.509Z,97648.09
2022-10-23T16:06:50.251Z,97658.34
2022-10-23T16:09:17.339Z,97662.16
2022-10-23T16:11:44.132Z,97675.97
2022-10-23T16:14:14.247Z,97674.00
2022-10-23T16:16:41.186Z,97676.69
2022-10-23T16:19:09.945Z,97689.31
2022-10-23T16:21:37.077Z,97697.41
2022-10-23T16:24:06.386Z,97690.28
2022-10-23T16:26:33.460Z,97704.72
2022-10-23T16:29:03.783Z,97708.50
2022-10-23T16:31:31.400Z,97713.75
2022-10-23T16:34:00.431Z,97720.00
2022-10-23T16:36:27.599Z,97719.78
2022-10-23T16:39:19.185Z,97736.38
2022-10-23T16:42:05.376Z,97751.66
2022-10-23T16:45:08.575Z,97768.75
2022-10-23T16:47:35.477Z,97781.69
2022-10-23T16:50:02.096Z,97777.88
2022-10-23T16:52:28.811Z,97799.81
2022-10-23T16:54:55.434Z,97818.66
2022-10-23T16:57:22.094Z,97839.31
2022-10-23T16:59:48.855Z,97834.88
2022-10-23T17:02:15.639Z,97867.31
2022-10-23T17:04:42.347Z,97847.53
2022-10-23T17:07:09.168Z,97827.25
2022-10-23T17:09:35.974Z,97791.81
2022-10-23T17:12:02.727Z,97770.13
2022-10-23T17:14:29.395Z,97738.00
2022-10-23T17:16:59.188Z,97713.28
2022-10-23T17:19:43.742Z,97711.44
2022-10-23T17:22:12.542Z,97714.56
2022-10-23T17:24:41.193Z,97712.41
2022-10-23T17:27:08.134Z,97719.09
2022-10-23T17:29:35.150Z,97728.59
2022-10-23T17:32:02.205Z,97731.81
2022-10-23T17:34:29.113Z,97721.88
2022-10-23T17:36:56.580Z,97717.19
2022-10-23T17:39:26.146Z,97719.19
2022-10-23T17:41:53.353Z,97714.59
2022-10-23T17:44:20.485Z,97715.66
2022-10-23T17:46:53.133Z,97721.97
2022-10-23T17:49:20.747Z,97719.94
2022-10-23T17:51:52.410Z,97722.91
2022-10-23T17:54:19.148Z,97710.41
2022-10-23T17:56:46.569Z,97718.63
2022-10-23T17:59:15.829Z,97726.13
2022-10-23T18:01:46.778Z,97730.28
2022-10-23T18:04:14.004Z,97735.56
2022-10-23T18:06:46.250Z,97732.03
2022-10-23T18:09:13.131Z,97737.66
2022-10-23T18:11:46.887Z,97741.13
2022-10-23T18:14:15.393Z,97755.44
2022-10-23T18:16:42.148Z,97755.41
2022-10-23T18:19:10.208Z,97760.78
2022-10-23T18:21:37.876Z,97774.81
2022-10-23T18:24:04.973Z,97784.56
2022-10-23T18:26:34.915Z,97787.13
2022-10-23T18:29:04.113Z,97782.13
2022-10-23T18:31:30.951Z,97786.91
2022-10-23T18:34:01.489Z,97781.56
2022-10-23T18:36:32.221Z,97782.22
2022-10-23T18:38:59.039Z,97784.69
2022-10-23T18:41:26.084Z,97780.16
2022-10-23T18:43:53.691Z,97771.25
2022-10-23T18:46:20.767Z,97774.69
2022-10-23T18:48:50.534Z,97776.63
2022-10-23T18:51:20.579Z,97772.00
2022-10-23T18:53:47.878Z,97764.84
2022-10-23T18:56:16.586Z,97771.50
2022-10-23T18:58:43.312Z,97759.00
2022-10-23T19:01:10.215Z,97765.22
2022-10-23T19:03:36.933Z,97771.78
2022-10-23T19:06:06.492Z,97758.91
2022-10-23T19:08:36.718Z,97764.44
2022-10-23T19:11:05.087Z,97773.13
2022-10-23T19:13:38.899Z,97776.41
2022-10-23T19:16:14.447Z,97771.34
2022-10-23T19:18:45.368Z,97786.63
2022-10-23T19:21:12.969Z,97785.59
2022-10-23T19:23:42.043Z,97769.25
2022-10-23T19:26:11.989Z,97764.78
2022-10-23T19:28:45.864Z,97768.94
2022-10-23T19:31:13.536Z,97767.53
2022-10-23T19:33:40.282Z,97764.94
2022-10-23T19:36:11.193Z,97774.13
2022-10-23T19:38:41.485Z,97765.06
2022-10-23T19:41:08.814Z,97770.41
2022-10-23T19:43:35.572Z,97773.63
2022-10-23T19:46:07.666Z,97777.75
2022-10-23T19:48:37.934Z,97774.97
2022-10-23T19:51:07.406Z,97777.28
2022-10-23T19:53:34.181Z,97781.66
2022-10-23T19:56:02.830Z,97784.44
2022-10-23T19:58:29.637Z,97793.69
2022-10-23T20:00:56.312Z,97794.75
2022-10-23T20:03:23.012Z,97792.94
2022-10-23T20:05:49.748Z,97797.63
2022-10-23T20:08:16.473Z,97800.31
2022-10-23T20:10:44.461Z,97797.63
2022-10-23T20:13:26.588Z,97806.25
2022-10-23T20:15:53.411Z,97801.06
2022-10-23T20:18:20.058Z,97814.63
2022-10-23T20:20:46.673Z,97811.19
2022-10-23T20:23:13.376Z,97816.53
2022-10-23T20:25:40.045Z,97828.13
2022-10-23T20:28:09.074Z,97839.00
2022-10-23T20:30:42.520Z,97843.66
2022-10-23T20:33:09.305Z,97841.56
2022-10-23T20:35:41.399Z,97854.00
2022-10-23T20:38:08.647Z,97851.50
2022-10-23T20:40:35.556Z,97849.59
2022-10-23T20:43:02.277Z,97853.31
2022-10-23T20:45:28.915Z,97848.16
2022-10-23T20:47:55.838Z,97850.84
2022-10-23T20:50:23.786Z,97863.22
2022-10-23T20:52:50.721Z,97856.34
2022-10-23T20:55:18.388Z,97853.00
2022-10-23T20:57:45.503Z,97863.13
2022-10-23T21:00:12.976Z,97857.88
2022-10-23T21:02:39.898Z,97855.38
2022-10-23T21:05:07.113Z,97856.63
2022-10-23T21:07:33.958Z,97856.13
2022-10-23T21:10:01.084Z,97861.47
2022-10-23T21:12:27.763Z,97853.47
2022-10-23T21:14:54.436Z,97850.88
2022-10-23T21:17:21.315Z,97850.88
2022-10-23T21:19:48.014Z,97860.09
2022-10-23T21:22:14.672Z,97865.44
2022-10-23T21:24:41.299Z,97871.66
2022-10-23T21:27:07.948Z,97861.94
2022-10-23T21:29:34.610Z,97866.66
2022-10-23T21:32:01.663Z,97865.09
2022-10-23T21:34:28.972Z,97867.03
2022-10-23T21:39:46.000Z,97872.44
2022-10-23T21:42:13.801Z,97865.66
2022-10-23T21:44:40.709Z,97860.13
2022-10-23T21:47:07.488Z,97871.75
2022-10-23T21:49:34.134Z,97867.22
2022-10-23T21:52:00.774Z,97858.94
2022-10-23T21:54:27.618Z,97854.91
2022-10-23T21:56:54.774Z,97846.72
2022-10-23T21:59:25.250Z,97853.94
2022-10-23T22:01:53.517Z,97846.78
2022-10-23T22:04:20.526Z,97854.13
2022-10-23T22:06:48.855Z,97847.75
2022-10-23T22:09:19.389Z,97855.84
2022-10-23T22:11:46.576Z,97846.97
2022-10-23T22:14:13.230Z,97853.06
2022-10-23T22:16:41.852Z,97862.13
2022-10-23T22:19:11.761Z,97859.28
2022-10-23T22:21:38.746Z,97861.00
2022-10-23T22:24:06.070Z,97851.47
2022-10-23T22:26:36.377Z,97847.47
2022-10-23T22:29:15.714Z,97853.44
2022-10-23T22:31:45.691Z,97858.84
2022-10-23T22:34:34.177Z,97865.06
2022-10-23T22:37:05.676Z,97864.28
2022-10-23T22:39:32.372Z,97858.16
2022-10-23T22:41:59.042Z,97859.28
2022-10-23T22:44:25.674Z,97861.97
2022-10-23T22:46:52.300Z,97860.34
2022-10-23T22:49:18.938Z,97862.50
2022-10-23T22:51:45.658Z,97863.19
2022-10-23T22:54:12.289Z,97859.91
2022-10-23T22:56:38.953Z,97841.56
2022-10-23T22:59:05.657Z,97856.66
2022-10-23T23:01:40.275Z,97859.22
2022-10-23T23:04:19.777Z,97854.25
2022-10-23T23:06:53.970Z,97862.00
2022-10-23T23:09:20.611Z,97866.47
2022-10-23T23:11:52.990Z,97852.19
2022-10-23T23:14:23.577Z,97853.88
2022-10-23T23:16:52.543Z,97859.91
2022-10-23T23:19:19.474Z,97861.72
2022-10-23T23:21:46.323Z,97859.16
2022-10-23T23:24:13.208Z,97870.88
2022-10-23T23:26:40.030Z,97855.63
2022-10-23T23:29:06.659Z,97870.69
2022-10-23T23:31:33.297Z,97862.59
2022-10-23T23:33:59.951Z,97860.69
2022-10-23T23:36:27.263Z,97862.31
2022-10-23T23:38:56.316Z,97861.28
2022-10-23T23:41:24.373Z,97864.06
2022-10-23T23:43:53.315Z,97855.19
2022-10-23T23:46:20.085Z,97867.59
2022-10-23T23:48:49.970Z,97862.31
2022-10-23T23:51:17.902Z,97859.47
2022-10-23T23:53:44.540Z,97854.56
2022-10-23T23:56:11.213Z,97856.31
2022-10-23T23:58:37.943Z,97857.16
